Donnes mto: Actuelle dimanche, 26.05.2019 08:00
Date Horaire Temp. E. Hum. E. P.atmo. Vent P. de rose Temp au vent Rafales
26.05.2019 08:00 9.6 C 88 % 899.4 hPa 0.0 km/h (0 Bft) 7.7 C 9.6 C 0.0 km/h (0 Bft)
26.05.2019 07:00 8.5 C 87 % 899.4 hPa 0.0 km/h (0 Bft) 6.5 C 8.5 C 0.0 km/h (0 Bft)
26.05.2019 06:00 8.3 C 87 % 899.4 hPa 0.2 km/h (0 Bft) 6.3 C 8.3 C 0.0 km/h (0 Bft)
26.05.2019 05:00 8.9 C 88 % 899.4 hPa 0.0 km/h (0 Bft) 7.0 C 8.9 C 0.0 km/h (0 Bft)
26.05.2019 04:00 8.9 C 86 % 899.4 hPa 0.0 km/h (0 Bft) 6.7 C 8.9 C 0.0 km/h (0 Bft)
26.05.2019 03:00 9.6 C 86 % 899.6 hPa 0.0 km/h (0 Bft) 7.4 C 9.6 C 0.0 km/h (0 Bft)
26.05.2019 02:00 9.6 C 85 % 899.8 hPa 0.0 km/h (0 Bft) 7.2 C 9.6 C 0.0 km/h (0 Bft)
26.05.2019 01:00 10.1 C 85 % 900.1 hPa 0.0 km/h (0 Bft) 7.7 C 10.1 C 0.0 km/h (0 Bft)
26.05.2019 00:00 10.9 C 85 % 900.3 hPa 0.0 km/h (0 Bft) 8.5 C 10.9 C 0.0 km/h (0 Bft)
25.05.2019 23:01 11.2 C 84 % 900.3 hPa 0.0 km/h (0 Bft) 8.6 C 11.2 C 0.0 km/h (0 Bft)
25.05.2019 22:00 11.3 C 83 % 899.9 hPa 0.0 km/h (0 Bft) 8.5 C 11.3 C 0.0 km/h (0 Bft)
25.05.2019 21:00 11.7 C 80 % 899.6 hPa 0.0 km/h (0 Bft) 8.4 C 11.7 C 0.0 km/h (0 Bft)
25.05.2019 20:00 13.9 C 74 % 899.1 hPa 0.0 km/h (0 Bft) 9.3 C 13.9 C 0.0 km/h (0 Bft)
25.05.2019 19:00 15.5 C 66 % 899.1 hPa 0.5 km/h (0 Bft) 9.2 C 15.5 C 0.0 km/h (0 Bft)
25.05.2019 18:00 14.4 C 69 % 898.7 hPa 6.4 km/h (2 Bft) 8.8 C 14.4 C 11.1 km/h (2 Bft)
25.05.2019 17:00 14.4 C 71 % 898.6 hPa 8.7 km/h (2 Bft) 9.2 C 13.1 C 20.1 km/h (4 Bft)
25.05.2019 16:00 15.3 C 62 % 898.2 hPa 6.0 km/h (2 Bft) 8.1 C 15.3 C 15.4 km/h (3 Bft)
25.05.2019 15:00 16.0 C 65 % 898.1 hPa 3.4 km/h (1 Bft) 9.4 C 16.0 C 2.9 km/h (1 Bft)
25.05.2019 14:00 13.5 C 79 % 898.8 hPa 0.0 km/h (0 Bft) 9.9 C 13.5 C 0.0 km/h (0 Bft)
25.05.2019 13:00 12.4 C 77 % 899.1 hPa 1.0 km/h (0 Bft) 8.5 C 12.4 C 13.5 km/h (3 Bft)
25.05.2019 12:00 14.4 C 73 % 898.8 hPa 0.8 km/h (0 Bft) 9.6 C 14.4 C 9.5 km/h (2 Bft)
_ Min-Heure 06:00 11:00 15:00 09:00 06:00 06:00 09:00
Minimum _ 8.3 C 59 % 898.1 hPa 0.0 km/h (0 Bft) 6.3 C 8.3 C 0.0 km/h (0 Bft)
_ Max-Heure 11:00 05:00 23:01 17:00 14:00 11:00 17:00
Maximum _ 16.0 C 88 % 900.3 hPa 8.7 km/h
NO (2 Bft)
9.9 C 16.0 C 20.1 km/h
NO (4 Bft)
Moyenne _ 12.1 C 78 % 899.2 hPa 1.2 km/h (1 Bft) 8.3 C 12.1 C 3.2 km/h (1 Bft)